메인 페이지
METAR-TAF:

METAR-TAF

공항 :

브루나이, 브루나이

브루나이 국제공항

위도: 04-56N, 경도: 114-56E, 고도: 22m

현재 날씨관측

예보는 12 시간 16분 전, 15:00시(UTC)에 발표되었습니다.
북동4kt
온도 27°C
습도 94%
기압 1009 hPa
시정: 9000m
고도 400ft 상공 구름 조금
고도 1400ft 상공 구름 보통
고도 15000ft 상공 구름 많음
약한비

METAR: WBSB 201500Z 04004KT 9000 -RA FEW004 SCT014 BKN150 27/26 Q1009 NOSIG

시각: 11:16 (03:16 UTC)

예보

예보는 16 시간 16분 전, 11:00시(UTC)에 발표되었습니다.
예보 대상 시간: 20일 12시부터 21일 18시까지 (UTC)
5kt
시정 10km 이상
고도 1500ft 상공 구름 보통
고도 1600ft 상공 구름 조금, 적란운.
일시적
20일 12시부터 20일 14시까지 (UTC)
시정: 6000m
소나기, 뇌우, 비
전환 중
20일 18시부터 20일 20시까지 (UTC)
남남서3kt
고도 1400ft 상공 구름 보통
고도 1500ft 상공 구름 조금, 적란운.

TAF: WBSB 201100Z 2012/2118 26005KT 9999 SCT015 FEW016CB TEMPO 2012/2014 6000 SHRA TSRA BECMG 2018/2020 20003KT SCT014 FEW015CB

4,000개 이상의 공항 관측 자료 및 예보 (METAR 및 TAF 보고).

지도상에서 검색 가능한 기상관측소가 노란 점과 빨간 점으로 표시되어 있습니다.

기상관측소 명을 보려면 표시 위로 마우스를 이동하세요.

날씨 관측과 예보를 보려면 클릭하세요.

지도 변경 : 확대하려면 엑스 표시가 있는 녹색 버튼, 축소하려면 빼기 표시가 있는 녹색 버튼, 다음 페이지의 지도를 보려면 녹색 화살표를 클릭하세요.


METAR-TAF: